Time;durP1;ratioP1;P1;durP2;ratioP2;P2;SDS_P1;SDS_P2;PMS_P1;PMS_P2;Temp;Humidity;BMP_temperature;BMP_pressure;BME280_temperature;BME280_humidity;BME280_pressure;Samples;Min_cycle;Max_cycle;Signal;HPM_P1;HPM_P2
2022/11/28 00:01:37;;;;;;;49.10;21.25;;;;;;;1.08;93.14;99331.48;1704197;84;25692;-70
2022/11/28 00:04:05;;;;;;;59.05;26.60;;;;;;;1.11;93.03;99328.84;1704245;84;25701;-71
2022/11/28 00:06:31;;;;;;;50.75;22.05;;;;;;;1.11;92.96;99328.32;1704348;84;27477;-71
2022/11/28 00:08:59;;;;;;;49.60;21.75;;;;;;;1.12;92.90;99320.50;1704152;84;25806;-71
2022/11/28 00:11:26;;;;;;;42.30;19.17;;;;;;;1.12;92.93;99316.45;1704354;84;25416;-72
2022/11/28 00:13:54;;;;;;;39.55;18.60;;;;;;;1.12;93.09;99312.41;1704205;84;25696;-71
2022/11/28 00:16:21;;;;;;;39.30;18.87;;;;;;;1.13;93.19;99316.73;1704315;84;25574;-72
2022/11/28 00:18:50;;;;;;;44.00;21.62;;;;;;;1.17;93.17;99313.57;1704339;84;27391;-71
2022/11/28 00:21:16;;;;;;;52.17;25.75;;;;;;;1.13;93.11;99302.44;1704159;84;25892;-71
2022/11/28 00:23:45;;;;;;;51.77;24.12;;;;;;;1.14;93.31;99309.47;1704343;84;25671;-71
2022/11/28 00:26:22;;;;;;;43.80;21.00;;;;;;;1.19;93.17;99303.37;1704294;84;26350;-71
2022/11/28 00:28:48;;;;;;;46.33;22.58;;;;;;;1.21;93.03;99295.87;1703945;82;25895;-71
2022/11/28 00:31:19;;;;;;;49.33;23.07;;;;;;;1.25;93.14;99290.28;1704464;84;28002;-71
2022/11/28 00:33:46;;;;;;;44.05;19.40;;;;;;;1.24;92.98;99297.55;1703896;84;25478;-71
2022/11/28 00:36:12;;;;;;;49.65;22.75;;;;;;;1.26;92.91;99290.56;1704414;84;25455;-68
2022/11/28 00:38:40;;;;;;;36.38;17.27;;;;;;;1.28;93.08;99290.33;1703947;84;25805;-68
2022/11/28 00:41:20;;;;;;;43.73;22.77;;;;;;;1.27;92.93;99284.13;1704335;84;25578;-68
2022/11/28 00:43:48;;;;;;;45.80;22.32;;;;;;;1.30;93.06;99290.41;1703902;84;29617;-68
2022/11/28 00:46:17;;;;;;;47.27;23.77;;;;;;;1.37;93.11;99289.73;1704168;84;25586;-68
2022/11/28 00:48:44;;;;;;;44.30;21.82;;;;;;;1.47;93.12;99295.07;1704327;84;25853;-69
2022/11/28 00:51:17;;;;;;;50.48;25.95;;;;;;;1.52;92.82;99303.81;1703885;84;25716;-69
2022/11/28 00:53:47;;;;;;;42.75;21.85;;;;;;;1.56;92.86;99306.33;1704442;84;25475;-69
2022/11/28 00:56:18;;;;;;;43.05;22.67;;;;;;;1.59;92.59;99295.05;1704319;84;28101;-68
2022/11/28 00:58:44;;;;;;;46.58;24.80;;;;;;;1.59;92.41;99295.05;1703920;84;25989;-68
2022/11/28 01:01:16;;;;;;;45.67;23.73;;;;;;;1.58;92.40;99292.86;1704272;84;25662;-68
2022/11/28 01:03:44;;;;;;;51.63;24.92;;;;;;;1.61;92.29;99295.09;1703903;84;25753;-69
2022/11/28 01:06:14;;;;;;;51.70;24.52;;;;;;;1.66;92.14;99297.59;1704249;84;25759;-69
2022/11/28 01:08:41;;;;;;;49.98;23.85;;;;;;;1.65;91.69;99302.72;1703814;84;27448;-68
2022/11/28 01:11:12;;;;;;;44.08;21.60;;;;;;;1.59;91.48;99298.58;1703764;84;25632;-71
2022/11/28 01:13:40;;;;;;;50.00;23.22;;;;;;;1.56;91.48;99292.30;1704413;84;25525;-68
2022/11/28 01:16:08;;;;;;;49.53;23.55;;;;;;;1.50;91.55;99287.84;1703875;84;25693;-68
2022/11/28 01:18:36;;;;;;;42.30;21.20;;;;;;;1.47;91.60;99287.77;1704357;84;25658;-71
2022/11/28 01:21:04;;;;;;;42.95;20.08;;;;;;;1.45;91.79;99283.16;1704049;84;27274;-68
2022/11/28 01:23:30;;;;;;;42.17;21.68;;;;;;;1.42;91.86;99271.99;1704285;84;25629;-70
2022/11/28 01:25:57;;;;;;;43.15;21.20;;;;;;;1.40;92.03;99276.80;1703857;84;25681;-69
2022/11/28 01:28:24;;;;;;;35.55;17.35;;;;;;;1.37;91.99;99275.41;1703891;84;25764;-68
2022/11/28 01:30:50;;;;;;;40.52;19.70;;;;;;;1.36;92.29;99267.83;1703869;82;25455;-70
2022/11/28 01:33:17;;;;;;;42.70;21.80;;;;;;;1.34;92.23;99269.96;1703881;84;27385;-68
2022/11/28 01:35:56;;;;;;;34.43;18.07;;;;;;;1.38;92.52;99268.94;1704053;84;25678;-68
2022/11/28 01:38:23;;;;;;;39.95;20.55;;;;;;;1.37;92.18;99266.78;1704240;84;25666;-68
2022/11/28 01:40:50;;;;;;;45.58;24.47;;;;;;;1.32;92.19;99260.46;1704340;84;25762;-68
2022/11/28 01:43:17;;;;;;;52.50;25.62;;;;;;;1.37;92.58;99262.73;1704064;84;25450;-68
2022/11/28 01:45:44;;;;;;;48.28;23.67;;;;;;;1.42;92.44;99255.79;1703896;84;27439;-68
2022/11/28 01:48:19;;;;;;;50.38;26.80;;;;;;;1.49;92.35;99242.97;1704284;84;25487;-69
2022/11/28 01:50:48;;;;;;;47.25;24.60;;;;;;;1.51;92.11;99250.31;1704057;84;25499;-69
2022/11/28 01:53:16;;;;;;;48.87;25.25;;;;;;;1.58;92.10;99241.53;1704096;84;25570;-68
2022/11/28 01:55:54;;;;;;;49.98;24.72;;;;;;;1.62;92.07;99239.98;1704283;84;25711;-69
2022/11/28 01:58:21;;;;;;;49.67;25.17;;;;;;;1.72;92.26;99235.32;1703655;83;27456;-68
2022/11/28 02:00:48;;;;;;;59.27;28.45;;;;;;;1.83;92.08;99244.45;1703770;84;27243;-68
2022/11/28 02:03:25;;;;;;;49.90;26.75;;;;;;;1.88;91.82;99239.67;1704029;84;25467;-69
2022/11/28 02:05:53;;;;;;;41.77;22.42;;;;;;;1.93;91.79;99234.34;1704098;84;25779;-71
2022/11/28 02:08:20;;;;;;;46.92;24.52;;;;;;;1.96;91.25;99224.95;1704149;84;25767;-71
2022/11/28 02:11:09;;;;;;;47.35;22.15;;;;;;;1.95;91.31;99224.64;1703895;84;27347;-70
2022/11/28 02:14:01;;;;;;;54.65;25.08;;;;;;;1.93;91.01;99218.67;1703808;84;25682;-69
2022/11/28 02:16:56;;;;;;;43.50;21.85;;;;;;;1.87;90.96;99212.34;1703887;84;25454;-68
2022/11/28 02:19:49;;;;;;;47.48;24.07;;;;;;;1.83;90.89;99212.54;1703696;84;25755;-69
2022/11/28 02:22:30;;;;;;;47.05;21.97;;;;;;;1.75;90.97;99205.64;1703745;84;25412;-70
2022/11/28 02:25:36;;;;;;;48.92;25.35;;;;;;;1.60;90.81;99197.55;1704477;84;27359;-70
2022/11/28 02:28:40;;;;;;;50.55;23.87;;;;;;;1.59;91.32;99203.19;1703647;84;25312;-70
2022/11/28 02:31:33;;;;;;;48.25;23.15;;;;;;;1.64;91.55;99196.52;1720826;83;25424;-70
2022/11/28 02:34:09;;;;;;;45.17;22.65;;;;;;;1.64;90.93;99193.81;1727839;82;26390;-70
2022/11/28 02:36:44;;;;;;;48.25;23.35;;;;;;;1.67;91.31;99196.03;1726717;82;25453;-70
2022/11/28 02:39:22;;;;;;;46.77;23.50;;;;;;;1.69;91.07;99193.09;1726911;82;27428;-70
2022/11/28 02:41:59;;;;;;;35.13;17.07;;;;;;;1.63;90.85;99184.08;1726392;82;25913;-72
2022/11/28 02:44:33;;;;;;;46.00;23.20;;;;;;;1.61;91.10;99184.31;1725939;82;25414;-70
2022/11/28 02:47:17;;;;;;;45.92;23.30;;;;;;;1.59;91.36;99191.86;1726869;82;26529;-70
2022/11/28 02:50:04;;;;;;;35.00;18.23;;;;;;;1.61;91.46;99188.37;1727156;83;25639;-70
2022/11/28 02:52:52;;;;;;;51.15;23.95;;;;;;;1.52;91.02;99191.16;1724403;83;27423;-69
2022/11/28 02:55:27;;;;;;;49.53;26.40;;;;;;;1.43;91.63;99187.20;1727144;82;25690;-70
2022/11/28 02:57:57;;;;;;;52.98;26.27;;;;;;;1.42;91.86;99188.27;1727455;82;25632;-70
2022/11/28 03:00:37;;;;;;;54.97;26.37;;;;;;;1.47;91.85;99176.23;1727681;82;25784;-70
2022/11/28 03:03:29;;;;;;;50.23;25.17;;;;;;;1.47;91.77;99179.72;1727433;83;25494;-72
2022/11/28 03:06:09;;;;;;;49.83;25.60;;;;;;;1.56;91.99;99182.89;1727248;82;27527;-71
2022/11/28 03:08:53;;;;;;;48.20;23.03;;;;;;;1.60;91.87;99175.10;1727771;82;25649;-73
2022/11/28 03:11:25;;;;;;;45.83;24.50;;;;;;;1.58;91.19;99177.25;1727573;83;25469;-70
2022/11/28 03:14:05;;;;;;;50.63;25.02;;;;;;;1.56;91.35;99178.00;1639419;87;25771;-71
2022/11/28 03:16:40;;;;;;;54.08;25.68;;;;;;;1.59;91.66;99173.47;1642003;87;25558;-70
2022/11/28 03:19:17;;;;;;;49.53;24.23;;;;;;;1.67;91.73;99172.27;1641787;87;27479;-72
2022/11/28 03:22:18;;;;;;;49.50;24.67;;;;;;;1.74;91.69;99160.25;1642026;87;25495;-71
2022/11/28 03:24:56;;;;;;;42.67;21.30;;;;;;;1.73;91.19;99154.53;1642293;87;25683;-70
2022/11/28 03:27:33;;;;;;;41.02;20.88;;;;;;;1.68;91.09;99143.66;1642149;87;25773;-73
2022/11/28 03:30:05;;;;;;;38.45;20.35;;;;;;;1.59;90.98;99140.53;1638237;87;25513;-70
2022/11/28 03:32:35;;;;;;;47.60;24.80;;;;;;;1.54;91.20;99139.59;1620118;88;27409;-71
2022/11/28 03:35:18;;;;;;;43.40;22.75;;;;;;;1.52;91.27;99135.78;1621364;88;25761;-71
2022/11/28 03:37:58;;;;;;;44.45;21.15;;;;;;;1.48;91.28;99135.98;1620107;88;25571;-72
2022/11/28 03:40:30;;;;;;;44.53;21.30;;;;;;;1.41;91.46;99129.38;1621417;88;26401;-70
2022/11/28 03:43:04;;;;;;;45.98;22.17;;;;;;;1.37;91.65;99138.50;1621118;88;25808;-71
2022/11/28 03:45:35;;;;;;;47.25;22.32;;;;;;;1.39;91.86;99132.86;1621049;88;28337;-70
2022/11/28 03:48:13;;;;;;;41.77;21.90;;;;;;;1.40;91.69;99129.09;1599685;88;25890;-70
2022/11/28 03:50:57;;;;;;;43.63;21.62;;;;;;;1.41;91.76;99131.27;1639361;84;25830;-71
2022/11/28 03:53:29;;;;;;;42.17;20.55;;;;;;;1.35;91.75;99131.68;1703137;84;25685;-71
2022/11/28 03:56:12;;;;;;;41.45;21.25;;;;;;;1.35;91.94;99131.68;1703613;84;25635;-70
2022/11/28 03:59:01;;;;;;;39.45;20.43;;;;;;;1.34;91.89;99126.00;1703783;83;27328;-70
2022/11/28 04:01:51;;;;;;;39.35;20.60;;;;;;;1.33;92.02;99129.77;1703823;83;25635;-70
2022/11/28 04:04:28;;;;;;;40.55;19.62;;;;;;;1.34;92.10;99129.53;1704289;84;25474;-70
2022/11/28 04:07:21;;;;;;;36.93;19.52;;;;;;;1.36;92.13;99134.14;1700220;84;25851;-71
2022/11/28 04:09:53;;;;;;;44.70;21.05;;;;;;;1.32;92.03;99130.84;1704242;84;25661;-71
2022/11/28 04:12:49;;;;;;;44.50;22.27;;;;;;;1.30;92.18;99136.48;1702490;84;28218;-72
2022/11/28 04:15:20;;;;;;;44.93;21.87;;;;;;;1.29;92.08;99124.02;1695238;84;25750;-70
2022/11/28 04:17:55;;;;;;;49.55;24.27;;;;;;;1.32;92.15;99134.89;1695643;84;25779;-71
2022/11/28 04:20:44;;;;;;;47.38;23.32;;;;;;;1.31;92.02;99134.58;1695972;84;25698;-70
2022/11/28 04:23:14;;;;;;;47.25;24.57;;;;;;;1.32;92.03;99137.59;1695526;84;25742;-70
2022/11/28 04:25:46;;;;;;;46.42;23.80;;;;;;;1.43;92.24;99138.06;1695870;84;27424;-70
2022/11/28 04:28:17;;;;;;;40.20;22.13;;;;;;;1.51;92.04;99132.80;1694912;84;25807;-70
2022/11/28 04:30:46;;;;;;;43.17;22.45;;;;;;;1.51;91.48;99132.80;1700449;83;31106;-71
2022/11/28 04:33:16;;;;;;;42.93;23.85;;;;;;;1.54;91.35;99137.72;1713014;83;25740;-71
2022/11/28 04:35:48;;;;;;;43.60;22.20;;;;;;;1.55;91.61;99135.85;1713101;83;25658;-69
2022/11/28 04:38:15;;;;;;;44.83;23.45;;;;;;;1.59;91.63;99134.30;1713049;83;27437;-72
2022/11/28 04:40:52;;;;;;;47.95;25.50;;;;;;;1.63;91.63;99141.68;1712555;83;25663;-69
2022/11/28 04:43:23;;;;;;;39.88;20.92;;;;;;;1.64;91.49;99138.42;1709978;83;25789;-69
2022/11/28 04:45:54;;;;;;;45.03;23.18;;;;;;;1.59;91.28;99126.19;1712386;83;25793;-70
2022/11/28 04:48:21;;;;;;;;;;;;;;;1.54;91.25;99135.55;1715430;83;25727;-70
2022/11/28 04:51:07;;;;;;;43.95;21.40;;;;;;;1.52;91.25;99133.08;1712836;83;27443;-71
2022/11/28 04:54:08;;;;;;;43.42;20.62;;;;;;;1.52;91.36;99141.73;1708970;83;27200;-69
2022/11/28 04:56:43;;;;;;;41.05;20.52;;;;;;;1.47;91.31;99143.81;1708946;84;25644;-69
2022/11/28 04:59:12;;;;;;;37.25;18.25;;;;;;;1.44;91.45;99148.34;1682691;84;25741;-70
2022/11/28 05:01:42;;;;;;;48.55;24.02;;;;;;;1.44;91.48;99141.05;1709155;84;25589;-71
2022/11/28 05:04:10;;;;;;;34.80;16.60;;;;;;;1.41;91.52;99136.12;1709313;83;26814;-70
2022/11/28 05:06:37;;;;;;;38.40;15.53;;;;;;;1.40;91.56;99136.36;1708891;84;25647;-71
2022/11/28 05:09:04;;;;;;;30.55;14.58;;;;;;;1.38;91.65;99139.30;1708688;84;25478;-70
2022/11/28 05:11:31;;;;;;;42.20;21.87;;;;;;;1.34;91.75;99136.80;1709078;84;26043;-71
2022/11/28 05:13:57;;;;;;;31.02;14.07;;;;;;;1.33;91.90;99131.13;1709129;84;25670;-72
2022/11/28 05:16:23;;;;;;;39.78;20.72;;;;;;;1.32;91.90;99137.05;1709038;84;27354;-70
2022/11/28 05:18:50;;;;;;;43.05;20.30;;;;;;;1.33;91.99;99134.66;1708671;84;25598;-70
2022/11/28 05:21:16;;;;;;;40.73;21.02;;;;;;;1.37;92.00;99135.80;1709105;83;25562;-70
2022/11/28 05:23:45;;;;;;;42.67;21.07;;;;;;;1.40;92.00;99136.36;1708648;84;25820;-71
2022/11/28 05:26:18;;;;;;;40.65;20.80;;;;;;;1.36;91.94;99128.74;1709044;84;25677;-71
2022/11/28 05:28:49;;;;;;;36.25;18.77;;;;;;;1.40;91.93;99127.73;1709167;84;27339;-69
2022/11/28 05:31:19;;;;;;;44.27;22.22;;;;;;;1.40;91.70;99131.79;1704757;83;25685;-70
2022/11/28 05:33:46;;;;;;;39.48;21.23;;;;;;;1.43;91.70;99133.18;1699072;84;25758;-71
2022/11/28 05:36:14;;;;;;;39.75;21.52;;;;;;;1.46;91.72;99129.48;1698953;84;25692;-73
2022/11/28 05:38:43;;;;;;;40.10;20.60;;;;;;;1.50;91.63;99137.93;1698996;84;25431;-73
2022/11/28 05:41:22;;;;;;;43.13;22.75;;;;;;;1.54;91.45;99136.89;1698993;84;28164;-73
2022/11/28 05:43:49;;;;;;;44.00;22.30;;;;;;;1.55;91.40;99133.95;1698970;84;25761;-72
2022/11/28 05:46:15;;;;;;;38.42;20.60;;;;;;;1.57;91.26;99129.66;1698970;84;25588;-71
2022/11/28 05:48:42;;;;;;;40.23;20.02;;;;;;;1.59;91.33;99131.59;1698958;84;25661;-72
2022/11/28 05:51:08;;;;;;;39.65;22.07;;;;;;;1.60;91.24;99132.70;1698971;84;25408;-70
2022/11/28 05:53:35;;;;;;;34.63;18.12;;;;;;;1.63;91.35;99132.75;1698970;84;27362;-70
2022/11/28 05:56:12;;;;;;;41.65;20.62;;;;;;;1.61;91.20;99133.51;1698526;84;25693;-72
2022/11/28 05:58:39;;;;;;;35.55;17.73;;;;;;;1.58;91.04;99134.02;1698888;84;25758;-71
2022/11/28 06:01:18;;;;;;;42.00;21.48;;;;;;;1.52;91.12;99130.94;1698833;84;25691;-70
2022/11/28 06:03:44;;;;;;;38.23;19.55;;;;;;;1.50;91.29;99131.17;1699031;84;25690;-72
2022/11/28 06:06:18;;;;;;;42.90;21.12;;;;;;;1.50;91.20;99133.88;1698855;84;28126;-73
2022/11/28 06:08:47;;;;;;;39.67;21.02;;;;;;;1.51;91.27;99131.45;1698795;84;25799;-73
2022/11/28 06:11:16;;;;;;;41.53;21.97;;;;;;;1.53;91.25;99133.39;1698859;84;25676;-73
2022/11/28 06:13:44;;;;;;;39.15;20.27;;;;;;;1.57;91.29;99138.59;1695021;84;25723;-73
2022/11/28 06:16:17;;;;;;;39.53;19.73;;;;;;;1.57;90.86;99133.71;1698986;84;25701;-73
2022/11/28 06:18:44;;;;;;;38.23;20.80;;;;;;;1.56;91.04;99132.91;1698857;84;27434;-73
2022/11/28 06:21:13;;;;;;;39.00;20.32;;;;;;;1.54;91.07;99132.32;1698927;84;25484;-72
2022/11/28 06:23:40;;;;;;;36.17;20.25;;;;;;;1.55;90.99;99125.05;1699001;84;25675;-72
2022/11/28 06:26:13;;;;;;;36.60;19.95;;;;;;;1.55;91.05;99125.05;1698898;84;26387;-72
2022/11/28 06:28:40;;;;;;;37.53;17.17;;;;;;;1.53;91.06;99121.76;1698957;84;25605;-72
2022/11/28 06:31:13;;;;;;;30.00;15.38;;;;;;;1.50;91.05;99126.57;1698912;82;27338;-72
2022/11/28 06:33:41;;;;;;;40.63;20.05;;;;;;;1.45;91.27;99126.50;1698756;84;25996;-73
2022/11/28 06:36:11;;;;;;;37.20;20.65;;;;;;;1.38;91.42;99125.28;1698539;84;25524;-72
2022/11/28 06:38:37;;;;;;;43.70;22.60;;;;;;;1.40;91.63;99128.26;1699028;82;26471;-73
2022/11/28 06:41:09;;;;;;;43.05;23.32;;;;;;;1.42;91.63;99133.73;1698936;84;25668;-73
2022/11/28 06:43:35;;;;;;;44.40;22.30;;;;;;;1.46;91.68;99132.70;1697186;84;26919;-73
2022/11/28 06:46:02;;;;;;;39.67;19.55;;;;;;;1.48;91.66;99128.72;1698898;84;25488;-73
2022/11/28 06:48:29;;;;;;;39.35;20.37;;;;;;;1.53;91.47;99123.11;1698691;84;25679;-72
2022/11/28 06:51:04;;;;;;;42.20;21.55;;;;;;;1.52;91.23;99121.48;1698837;84;25682;-72
2022/11/28 06:53:32;;;;;;;46.92;24.27;;;;;;;1.53;91.36;99123.94;1698850;84;25671;-73
2022/11/28 06:56:15;;;;;;;42.50;21.85;;;;;;;1.56;91.48;99123.45;1698884;84;28044;-73
2022/11/28 06:58:43;;;;;;;39.08;17.90;;;;;;;1.59;91.24;99116.22;1696037;84;25696;-71
2022/11/28 07:01:17;;;;;;;36.70;18.27;;;;;;;1.61;91.23;99117.30;1697731;84;25485;-73
2022/11/28 07:03:45;;;;;;;45.48;22.80;;;;;;;1.57;91.16;99125.09;1698830;84;25742;-73
2022/11/28 07:06:13;;;;;;;42.10;19.30;;;;;;;1.58;91.17;99123.22;1698858;84;25660;-73
2022/11/28 07:08:39;;;;;;;44.75;21.60;;;;;;;1.57;91.05;99115.63;1698532;84;27440;-72
2022/11/28 07:11:19;;;;;;;31.55;13.30;;;;;;;1.55;91.26;99116.95;1698510;84;25639;-71
2022/11/28 07:13:47;;;;;;;42.78;22.10;;;;;;;1.56;91.23;99115.35;1698658;84;25623;-72
2022/11/28 07:16:17;;;;;;;46.75;22.82;;;;;;;1.49;91.36;99115.48;1698893;84;25847;-72
2022/11/28 07:18:44;;;;;;;45.23;23.47;;;;;;;1.49;91.56;99103.34;1698186;84;25618;-71
2022/11/28 07:21:13;;;;;;;48.75;22.65;;;;;;;1.54;91.68;99105.31;1698073;84;27411;-70
2022/11/28 07:23:42;;;;;;;48.10;24.75;;;;;;;1.57;91.49;99103.48;1698228;84;25491;-71
2022/11/28 07:26:12;;;;;;;45.70;23.30;;;;;;;1.59;91.40;99105.94;1698748;84;25490;-72
2022/11/28 07:28:39;;;;;;;44.13;23.60;;;;;;;1.62;91.33;99104.89;1698748;84;25694;-72
2022/11/28 07:31:10;;;;;;;43.98;22.15;;;;;;;1.68;91.27;99099.59;1699569;82;25602;-70
2022/11/28 07:33:37;;;;;;;;;;;;;;;1.71;91.18;99103.16;1710973;83;29521;-72
2022/11/28 07:36:09;;;;;;;48.98;23.05;;;;;;;1.75;91.09;99101.08;1708582;84;25429;-73
2022/11/28 07:38:35;;;;;;;48.52;23.50;;;;;;;1.78;91.10;99103.02;1707722;83;25667;-72
2022/11/28 07:41:06;;;;;;;43.40;22.32;;;;;;;1.81;90.93;99097.92;1708736;84;25784;-71
2022/11/28 07:43:33;;;;;;;46.18;24.07;;;;;;;1.84;90.81;99098.78;1708696;83;25691;-73
2022/11/28 07:46:06;;;;;;;40.30;20.60;;;;;;;1.89;90.68;99096.70;1708999;84;27541;-71
2022/11/28 07:48:34;;;;;;;46.85;23.92;;;;;;;1.90;90.67;99091.57;1707230;83;25692;-73
2022/11/28 07:51:21;;;;;;;44.55;24.75;;;;;;;1.91;90.43;99090.53;1709069;83;25614;-71
2022/11/28 07:53:47;;;;;;;43.13;22.27;;;;;;;1.91;90.63;99088.34;1708952;84;25643;-73
2022/11/28 07:56:18;;;;;;;50.83;27.02;;;;;;;1.88;90.44;99091.02;1709035;84;25731;-73
2022/11/28 07:58:46;;;;;;;54.18;26.73;;;;;;;1.85;90.50;99084.75;1709000;84;27499;-73
2022/11/28 08:01:19;;;;;;;56.65;26.20;;;;;;;1.90;90.66;99083.46;1708862;84;25634;-72
2022/11/28 08:03:47;;;;;;;48.70;24.80;;;;;;;1.94;90.60;99083.28;1709018;84;25501;-73
2022/11/28 08:06:19;;;;;;;46.37;24.35;;;;;;;1.98;90.32;99080.89;1708555;84;25720;-72
2022/11/28 08:08:47;;;;;;;49.63;24.90;;;;;;;2.01;90.02;99079.05;1709087;84;25417;-71
2022/11/28 08:11:16;;;;;;;47.48;25.60;;;;;;;2.00;89.73;99076.89;1708908;84;28287;-73
2022/11/28 08:13:43;;;;;;;49.10;25.02;;;;;;;2.05;89.92;99066.69;1709052;84;25660;-73
2022/11/28 08:16:17;;;;;;;44.75;22.70;;;;;;;2.11;89.90;99072.98;1708704;84;25591;-73
2022/11/28 08:18:45;;;;;;;47.20;23.77;;;;;;;2.18;89.71;99072.80;1707802;83;25696;-72
2022/11/28 08:21:19;;;;;;;45.80;25.08;;;;;;;2.21;89.68;99066.38;1708719;84;25754;-73
2022/11/28 08:23:45;;;;;;;42.48;20.88;;;;;;;2.25;89.64;99070.21;1708864;84;28026;-73
2022/11/28 08:26:16;;;;;;;37.15;19.60;;;;;;;2.27;89.44;99069.96;1709012;84;25508;-73
2022/11/28 08:28:43;;;;;;;28.57;14.45;;;;;;;2.27;89.12;99077.28;1709039;84;25675;-73
2022/11/28 08:31:23;;;;;;;47.10;24.77;;;;;;;2.23;89.11;99068.30;1708977;84;25709;-72
2022/11/28 08:33:52;;;;;;;48.60;25.37;;;;;;;2.25;89.43;99070.77;1709148;84;25448;-72
2022/11/28 08:36:20;;;;;;;46.63;24.57;;;;;;;2.24;88.99;99069.11;1709112;84;27388;-73
2022/11/28 08:38:47;;;;;;;48.05;25.08;;;;;;;2.28;89.18;99072.97;1709118;84;25631;-72
2022/11/28 08:41:18;;;;;;;45.50;24.37;;;;;;;2.37;89.37;99071.48;1708919;84;25666;-71
2022/11/28 08:43:45;;;;;;;41.53;20.72;;;;;;;2.46;88.82;99075.09;1709340;84;25748;-72
2022/11/28 08:46:15;;;;;;;46.23;24.00;;;;;;;2.47;88.73;99077.55;1708693;84;25713;-72
2022/11/28 08:48:43;;;;;;;47.65;25.77;;;;;;;2.53;88.41;99068.96;1709052;84;27471;-73
2022/11/28 08:51:13;;;;;;;46.98;26.27;;;;;;;2.60;88.86;99065.56;1708899;84;25699;-72
2022/11/28 08:53:41;;;;;;;45.78;24.32;;;;;;;2.68;88.41;99071.60;1708768;83;25642;-70
2022/11/28 08:56:09;;;;;;;51.90;26.90;;;;;;;2.70;88.15;99074.33;1709074;84;25674;-71
2022/11/28 08:58:36;;;;;;;53.25;29.55;;;;;;;2.79;88.57;99077.41;1708738;84;25480;-71
2022/11/28 09:01:03;;;;;;;52.05;27.35;;;;;;;2.90;88.77;99074.30;1709082;84;28192;-72
2022/11/28 09:03:29;;;;;;;45.70;25.80;;;;;;;2.97;88.25;99071.41;1709100;84;25591;-71
2022/11/28 09:06:01;;;;;;;33.30;18.02;;;;;;;3.02;88.33;99067.39;1708710;84;25610;-71
2022/11/28 09:08:27;;;;;;;46.58;24.70;;;;;;;3.05;87.45;99067.44;1708929;84;25696;-72
2022/11/28 09:10:54;;;;;;;49.73;24.07;;;;;;;3.03;87.67;99070.40;1708979;83;25421;-71
2022/11/28 09:13:20;;;;;;;41.05;20.50;;;;;;;3.08;87.91;99067.73;1709121;84;27984;-72
2022/11/28 09:15:48;;;;;;;46.00;24.77;;;;;;;3.12;87.36;99069.41;1709036;84;25680;-72
2022/11/28 09:18:16;;;;;;;41.95;23.38;;;;;;;3.17;87.54;99065.94;1708712;84;25677;-71
2022/11/28 09:20:43;;;;;;;40.05;20.77;;;;;;;3.27;87.51;99064.69;1708705;84;25809;-71
2022/11/28 09:23:10;;;;;;;41.23;21.55;;;;;;;3.31;86.18;99046.84;1709010;84;25441;-71
2022/11/28 09:25:38;;;;;;;39.78;20.90;;;;;;;3.36;86.71;99046.90;1708698;84;27425;-71
2022/11/28 09:28:06;;;;;;;37.98;21.57;;;;;;;3.42;86.40;99044.25;1709095;84;25710;-70
2022/11/28 09:30:33;;;;;;;38.25;19.87;;;;;;;3.54;86.93;99048.95;1709018;84;25742;-71
2022/11/28 09:33:00;;;;;;;30.43;16.37;;;;;;;3.67;86.29;99044.18;1701233;84;25689;-71
2022/11/28 09:35:26;;;;;;;38.98;20.48;;;;;;;3.77;85.71;99038.83;1696253;84;25461;-71
2022/11/28 09:37:53;;;;;;;35.10;19.37;;;;;;;3.80;85.96;99047.01;1696127;84;28075;-71
2022/11/28 09:40:38;;;;;;;41.73;21.87;;;;;;;3.92;86.55;99038.16;1695952;84;25607;-71
2022/11/28 09:43:37;;;;;;;38.33;18.92;;;;;;;4.06;86.70;99037.14;1692385;84;26529;-71
2022/11/28 09:46:09;;;;;;;42.05;20.97;;;;;;;4.18;85.45;99039.69;1696052;84;25757;-71
2022/11/28 09:48:45;;;;;;;34.27;20.10;;;;;;;4.13;85.33;99038.28;1696309;84;25588;-71
2022/11/28 09:51:32;;;;;;;37.93;19.67;;;;;;;4.14;84.57;99027.70;1696413;84;27542;-71
2022/11/28 09:54:15;;;;;;;42.40;21.77;;;;;;;4.14;84.08;99031.77;1696742;84;25960;-70
2022/11/28 09:56:46;;;;;;;41.90;20.90;;;;;;;4.14;83.78;99029.89;1696323;83;25672;-71
2022/11/28 09:59:24;;;;;;;40.25;22.35;;;;;;;4.20;84.42;99024.50;1696164;84;30550;-72
2022/11/28 10:02:14;;;;;;;37.50;19.25;;;;;;;4.25;84.17;99024.52;1646176;87;25858;-70
2022/11/28 10:04:58;;;;;;;52.35;24.50;;;;;;;4.30;84.06;99018.30;1646361;87;27777;-70
2022/11/28 10:07:57;;;;;;;42.03;22.05;;;;;;;4.26;84.26;99013.96;1646256;87;25574;-70
2022/11/28 10:10:52;;;;;;;43.87;22.30;;;;;;;4.24;83.86;99014.22;1588519;89;25789;-70
2022/11/28 10:13:51;;;;;;;43.45;22.80;;;;;;;4.23;84.62;99001.72;1568702;91;25824;-70
2022/11/28 10:16:28;;;;;;;41.00;22.55;;;;;;;4.26;84.44;99005.27;1568103;91;25799;-70
2022/11/28 10:18:59;;;;;;;48.52;24.18;;;;;;;4.29;83.99;98995.77;1567523;91;28215;-70
2022/11/28 10:21:40;;;;;;;35.48;17.87;;;;;;;4.33;84.30;98995.55;1568432;91;25926;-71
2022/11/28 10:24:17;;;;;;;40.30;22.27;;;;;;;4.35;83.25;99000.70;1568899;91;25706;-70
2022/11/28 10:26:51;;;;;;;42.93;22.67;;;;;;;4.33;83.24;98998.25;1567822;91;26763;-71
2022/11/28 10:29:32;;;;;;;45.58;24.02;;;;;;;4.35;83.23;98993.92;1568528;91;25750;-71
2022/11/28 10:32:02;;;;;;;45.67;25.12;;;;;;;4.43;84.09;98988.53;1569109;90;28002;-71
2022/11/28 10:34:36;;;;;;;48.35;24.98;;;;;;;4.52;83.58;98984.23;1576591;91;26068;-70
2022/11/28 10:37:26;;;;;;;40.45;19.27;;;;;;;4.59;83.55;98988.05;1562595;89;25901;-71
2022/11/28 10:39:53;;;;;;;61.15;34.58;;;;;;;4.59;82.51;98985.33;1598750;89;25770;-71
2022/11/28 10:42:36;;;;;;;65.62;32.50;;;;;;;4.62;83.42;98984.80;1605562;89;25745;-70
2022/11/28 10:45:23;;;;;;;41.58;22.22;;;;;;;4.71;83.79;98975.59;1652511;85;27482;-70
2022/11/28 10:48:13;;;;;;;74.25;33.15;;;;;;;4.72;82.93;98973.97;1673562;85;25508;-71
2022/11/28 10:50:54;;;;;;;73.90;33.50;;;;;;;4.70;82.40;98965.82;1669174;85;25470;-71
2022/11/28 10:53:53;;;;;;;60.38;30.57;;;;;;;4.78;82.97;98972.10;1668359;85;25841;-71
2022/11/28 10:56:43;;;;;;;46.85;25.72;;;;;;;4.87;82.57;98960.17;1668456;86;25708;-71
2022/11/28 10:59:20;;;;;;;35.55;18.15;;;;;;;4.97;82.27;98958.00;1668459;86;26793;-71
2022/11/28 11:01:48;;;;;;;58.60;35.23;;;;;;;4.97;80.71;98954.75;1668022;85;25637;-71
2022/11/28 11:04:22;;;;;;;57.00;27.93;;;;;;;4.96;81.30;98949.05;1668448;86;25889;-72
2022/11/28 11:07:14;;;;;;;47.58;25.32;;;;;;;5.01;81.11;98953.12;1668774;86;25780;-71
2022/11/28 11:09:42;;;;;;;66.50;30.10;;;;;;;5.11;81.56;98950.14;1668457;86;25596;-70
2022/11/28 11:12:14;;;;;;;60.55;27.70;;;;;;;5.17;80.83;98954.50;1668667;86;27464;-72
2022/11/28 11:14:41;;;;;;;44.38;23.00;;;;;;;5.17;80.56;98945.53;1667474;85;25607;-71
2022/11/28 11:17:33;;;;;;;142.32;49.27;;;;;;;5.17;79.59;98946.88;1668452;86;25623;-71
2022/11/28 11:20:01;;;;;;;45.05;27.73;;;;;;;5.12;79.41;98940.91;1668761;86;25841;-71
2022/11/28 11:22:31;;;;;;;37.78;20.48;;;;;;;5.18;80.37;98940.39;1668760;86;25633;-71
2022/11/28 11:25:14;;;;;;;45.63;23.65;;;;;;;5.32;79.96;98938.74;1668714;86;28262;-71
2022/11/28 11:27:59;;;;;;;43.55;23.00;;;;;;;5.42;80.09;98943.38;1668572;86;25505;-72
2022/11/28 11:30:31;;;;;;;48.78;26.42;;;;;;;5.50;80.03;98931.14;1668444;85;25498;-72
2022/11/28 11:33:01;;;;;;;49.58;27.40;;;;;;;5.59;80.44;98935.48;1676017;83;25703;-72
2022/11/28 11:35:35;;;;;;;50.63;26.30;;;;;;;5.71;80.87;98937.91;1704126;84;25490;-71
2022/11/28 11:38:27;;;;;;;46.95;26.75;;;;;;;5.80;80.56;98934.90;1703773;84;27515;-72
2022/11/28 11:40:54;;;;;;;39.03;21.20;;;;;;;5.97;80.67;98935.95;1704286;84;25706;-71
2022/11/28 11:43:28;;;;;;;21.00;10.85;;;;;;;6.18;79.82;98935.09;1703615;84;25635;-71
2022/11/28 11:46:11;;;;;;;11.38;6.70;;;;;;;6.37;77.62;98932.58;1704170;84;25714;-71
2022/11/28 11:48:42;;;;;;;9.78;5.05;;;;;;;6.66;75.50;98930.53;1704191;84;25671;-71
2022/11/28 11:51:26;;;;;;;;;;;;;;;6.88;71.91;98928.75;1706492;84;27430;-71
2022/11/28 11:54:09;;;;;;;7.17;4.60;;;;;;;7.03;71.97;98922.95;1704081;84;25661;-72
2022/11/28 11:56:38;;;;;;;5.35;2.80;;;;;;;7.20;69.75;98919.80;1702917;84;25475;-72